createdAt,value
2023-03-02T00:00:45.256Z,17.50
2023-03-02T00:05:41.052Z,22.03
2023-03-02T00:10:33.620Z,19.40
2023-03-02T00:15:26.278Z,20.10
2023-03-02T00:20:18.897Z,20.70
2023-03-02T00:25:13.430Z,20.33
2023-03-02T00:30:06.584Z,21.40
2023-03-02T00:34:59.283Z,16.27
2023-03-02T00:39:52.432Z,20.77
2023-03-02T00:44:46.314Z,18.33
2023-03-02T00:49:38.935Z,20.50
2023-03-02T00:54:31.567Z,20.90
2023-03-02T00:59:27.564Z,20.43
2023-03-02T01:04:46.289Z,23.30
2023-03-02T01:09:39.190Z,23.83
2023-03-02T01:14:31.861Z,22.57
2023-03-02T01:19:24.524Z,23.27
2023-03-02T01:24:18.835Z,22.47
2023-03-02T01:29:11.636Z,22.50
2023-03-02T01:34:04.267Z,23.60
2023-03-02T01:38:56.951Z,24.03
2023-03-02T01:43:50.971Z,22.47
2023-03-02T01:48:45.761Z,22.97
2023-03-02T01:53:46.668Z,21.20
2023-03-02T01:58:39.398Z,21.23
2023-03-02T02:03:33.330Z,19.53
2023-03-02T02:08:26.374Z,20.17
2023-03-02T02:13:19.013Z,22.00
2023-03-02T02:18:11.776Z,20.90
2023-03-02T02:23:10.474Z,21.27
2023-03-02T02:28:08.472Z,22.70
2023-03-02T02:33:01.633Z,21.43
2023-03-02T02:37:56.441Z,21.17
2023-03-02T02:42:50.652Z,21.03
2023-03-02T02:47:44.651Z,23.20
2023-03-02T02:52:37.756Z,21.90
2023-03-02T02:57:30.968Z,21.93
2023-03-02T03:02:24.821Z,21.10
2023-03-02T03:07:23.277Z,20.97
2023-03-02T03:12:19.933Z,23.33
2023-03-02T03:17:13.828Z,24.93
2023-03-02T03:22:17.129Z,22.80
2023-03-02T03:27:14.879Z,21.73
2023-03-02T03:32:25.874Z,22.70
2023-03-02T03:37:24.231Z,24.50
2023-03-02T03:42:22.651Z,24.83
2023-03-02T03:47:16.220Z,24.07
2023-03-02T03:52:12.158Z,21.27
2023-03-02T03:57:06.286Z,22.93
2023-03-02T04:02:01.552Z,23.30
2023-03-02T04:07:02.059Z,22.13
2023-03-02T04:11:59.379Z,23.47
2023-03-02T04:16:54.618Z,25.77
2023-03-02T04:21:51.352Z,23.37
2023-03-02T04:26:49.145Z,22.57
2023-03-02T04:31:48.301Z,22.87
2023-03-02T04:36:45.165Z,25.47
2023-03-02T04:41:44.278Z,26.03
2023-03-02T04:46:37.104Z,22.30
2023-03-02T04:51:30.647Z,23.77
2023-03-02T04:56:26.819Z,26.77
2023-03-02T05:01:22.170Z,27.37
2023-03-02T05:06:15.437Z,23.73
2023-03-02T05:11:22.962Z,27.70
2023-03-02T05:16:23.083Z,25.33
2023-03-02T05:21:16.404Z,27.37
2023-03-02T05:26:09.077Z,26.20
2023-03-02T05:31:02.451Z,26.10
2023-03-02T05:35:56.593Z,26.53
2023-03-02T05:40:49.440Z,25.90
2023-03-02T05:45:42.127Z,25.87
2023-03-02T05:50:34.853Z,28.70
2023-03-02T05:55:29.206Z,27.07
2023-03-02T06:00:22.118Z,25.73
2023-03-02T06:05:15.650Z,26.07
2023-03-02T06:10:10.225Z,29.10
2023-03-02T06:15:04.628Z,26.83
2023-03-02T06:19:57.157Z,30.93
2023-03-02T06:24:49.827Z,27.57
2023-03-02T06:29:42.370Z,27.97
2023-03-02T06:34:36.352Z,27.03
2023-03-02T06:39:30.090Z,26.00
2023-03-02T06:44:22.703Z,27.10
2023-03-02T06:49:15.150Z,25.97
2023-03-02T06:54:08.959Z,25.80
2023-03-02T06:59:01.455Z,26.60
2023-03-02T07:03:54.019Z,28.87
2023-03-02T07:08:46.746Z,30.73
2023-03-02T07:13:41.053Z,31.93
2023-03-02T07:18:33.599Z,32.60
2023-03-02T07:23:26.069Z,41.37
2023-03-02T07:28:18.640Z,41.73
2023-03-02T07:33:12.497Z,32.57
2023-03-02T07:38:04.976Z,31.60
2023-03-02T07:42:57.515Z,28.23
2023-03-02T07:47:49.961Z,27.27
2023-03-02T07:52:43.777Z,26.90
2023-03-02T07:57:36.664Z,29.23
2023-03-02T08:02:29.317Z,27.73
2023-03-02T08:07:21.847Z,30.50
2023-03-02T08:12:15.672Z,30.00
2023-03-02T08:17:08.345Z,30.70
2023-03-02T08:22:01.915Z,31.53
2023-03-02T08:26:54.536Z,32.67
2023-03-02T08:31:48.519Z,31.20
2023-03-02T08:36:43.192Z,31.20
2023-03-02T08:41:35.994Z,30.67
2023-03-02T08:46:28.617Z,28.80
2023-03-02T08:51:23.477Z,30.80
2023-03-02T08:56:16.943Z,30.13
2023-03-02T09:01:14.166Z,30.70
2023-03-02T09:06:07.043Z,29.33
2023-03-02T09:11:01.041Z,31.63
2023-03-02T09:15:53.611Z,31.37
2023-03-02T09:20:46.224Z,31.10
2023-03-02T09:25:38.784Z,30.47
2023-03-02T09:30:32.904Z,32.33
2023-03-02T09:35:25.540Z,30.73
2023-03-02T09:40:20.138Z,32.00
2023-03-02T09:45:22.845Z,31.50
2023-03-02T09:50:29.616Z,34.00
2023-03-02T09:55:24.551Z,32.30
2023-03-02T10:00:20.577Z,31.87
2023-03-02T10:05:17.352Z,32.60
2023-03-02T10:10:18.872Z,31.93
2023-03-02T10:15:13.603Z,31.23
2023-03-02T10:20:10.001Z,32.37
2023-03-02T10:25:07.774Z,31.10
2023-03-02T10:30:06.340Z,32.60
2023-03-02T10:35:01.466Z,31.10
2023-03-02T10:39:54.112Z,31.27
2023-03-02T10:44:47.974Z,32.40
2023-03-02T10:49:44.036Z,33.63
2023-03-02T10:54:36.869Z,32.47
2023-03-02T10:59:39.942Z,32.40
2023-03-02T11:04:32.857Z,32.67
2023-03-02T11:14:24.315Z,32.97
2023-03-02T11:19:18.632Z,31.10
2023-03-02T11:24:14.007Z,29.87
2023-03-02T11:29:12.991Z,31.07
2023-03-02T11:34:23.558Z,31.13
2023-03-02T11:39:18.712Z,31.67
2023-03-02T11:44:16.247Z,31.23
2023-03-02T11:49:14.411Z,31.50
2023-03-02T11:54:13.685Z,27.93
2023-03-02T11:59:11.407Z,27.80
2023-03-02T12:04:09.676Z,26.73
2023-03-02T12:09:10.964Z,26.00
2023-03-02T12:14:04.833Z,27.80
2023-03-02T12:18:57.435Z,27.60
2023-03-02T12:24:22.908Z,25.77
2023-03-02T12:29:23.747Z,25.33
2023-03-02T12:34:25.977Z,25.90
2023-03-02T12:39:25.155Z,25.40
2023-03-02T12:44:24.292Z,24.90
2023-03-02T12:49:28.351Z,25.77
2023-03-02T12:54:23.281Z,24.73
2023-03-02T12:59:23.421Z,24.80
2023-03-02T13:04:23.345Z,25.60
2023-03-02T13:09:16.408Z,24.37
2023-03-02T13:14:19.814Z,24.77
2023-03-02T13:19:16.480Z,23.47
2023-03-02T13:24:21.619Z,24.23
2023-03-02T13:29:19.206Z,24.80
2023-03-02T13:34:20.859Z,24.20
2023-03-02T13:39:19.520Z,24.73
2023-03-02T13:44:13.696Z,25.00
2023-03-02T13:49:11.325Z,27.43
2023-03-02T13:54:07.164Z,25.40
2023-03-02T13:59:00.161Z,26.43
2023-03-02T14:03:52.716Z,25.97
2023-03-02T14:08:45.695Z,24.33
2023-03-02T14:13:41.502Z,24.67
2023-03-02T14:18:37.514Z,25.47
2023-03-02T14:23:30.264Z,25.27
2023-03-02T14:28:25.276Z,25.37
2023-03-02T14:33:19.370Z,24.73
2023-03-02T14:38:12.387Z,26.30
2023-03-02T14:43:05.026Z,24.87
2023-03-02T14:47:57.683Z,24.40
2023-03-02T14:52:55.019Z,23.87
2023-03-02T14:57:50.049Z,23.70
2023-03-02T15:02:42.788Z,25.00
2023-03-02T15:07:37.094Z,22.50
2023-03-02T15:12:31.046Z,22.87
2023-03-02T15:17:24.255Z,23.70
2023-03-02T15:22:18.934Z,24.27
2023-03-02T15:27:13.889Z,24.83
2023-03-02T15:32:08.051Z,26.83
2023-03-02T15:37:00.625Z,24.30
2023-03-02T15:41:53.802Z,25.17
2023-03-02T15:46:46.571Z,26.57
2023-03-02T15:51:40.487Z,24.90
2023-03-02T15:56:43.774Z,26.77
2023-03-02T16:01:36.939Z,25.83
2023-03-02T16:06:30.675Z,28.07
2023-03-02T16:11:24.530Z,28.67
2023-03-02T16:16:17.180Z,38.70
2023-03-02T16:21:14.052Z,28.83
2023-03-02T16:26:07.843Z,27.57
2023-03-02T16:31:05.392Z,28.40
2023-03-02T16:35:57.952Z,29.77
2023-03-02T16:40:52.515Z,26.77
2023-03-02T16:45:45.279Z,28.53
2023-03-02T16:50:39.847Z,29.03
2023-03-02T16:55:32.447Z,30.90
2023-03-02T17:00:25.476Z,48.07
2023-03-02T17:05:19.595Z,30.37
2023-03-02T17:10:15.814Z,33.30
2023-03-02T17:15:09.227Z,33.23
2023-03-02T17:20:01.794Z,33.73
2023-03-02T17:24:54.355Z,32.70
2023-03-02T17:29:48.414Z,35.40
2023-03-02T17:34:43.166Z,33.77
2023-03-02T17:39:36.212Z,42.63
2023-03-02T17:44:28.954Z,32.63
2023-03-02T17:49:22.921Z,31.80
2023-03-02T17:54:15.630Z,32.57
2023-03-02T17:59:08.210Z,30.30
2023-03-02T18:04:00.965Z,29.20
2023-03-02T18:08:54.988Z,30.10
2023-03-02T18:13:47.956Z,31.90
2023-03-02T18:18:40.982Z,30.17
2023-03-02T18:23:33.988Z,30.87
2023-03-02T18:28:28.032Z,30.27
2023-03-02T18:33:20.700Z,31.63
2023-03-02T18:38:13.378Z,33.97
2023-03-02T18:43:06.004Z,36.20
2023-03-02T18:48:00.452Z,38.17
2023-03-02T18:52:53.320Z,37.87
2023-03-02T18:57:45.949Z,34.87
2023-03-02T19:02:38.606Z,36.20
2023-03-02T19:07:32.611Z,34.90
2023-03-02T19:12:25.215Z,31.57
2023-03-02T19:17:17.789Z,30.97
2023-03-02T19:22:10.460Z,31.40
2023-03-02T19:27:04.451Z,21.97
2023-03-02T19:31:58.150Z,30.27
2023-03-02T19:36:50.867Z,34.67
2023-03-02T19:41:43.498Z,39.10
2023-03-02T19:46:37.496Z,38.27
2023-03-02T19:51:31.249Z,43.27
2023-03-02T19:56:26.820Z,40.43
2023-03-02T20:01:21.630Z,44.83
2023-03-02T20:06:15.954Z,38.30
2023-03-02T20:11:17.227Z,39.80
2023-03-02T20:16:09.961Z,31.87
2023-03-02T20:21:02.559Z,33.10
2023-03-02T20:25:56.482Z,31.50
2023-03-02T20:30:53.839Z,31.70
2023-03-02T20:35:47.373Z,30.73
2023-03-02T20:40:40.685Z,30.63
2023-03-02T20:45:34.652Z,30.00
2023-03-02T20:50:31.122Z,29.40
2023-03-02T20:55:23.759Z,29.23
2023-03-02T21:00:20.676Z,30.33
2023-03-02T21:05:14.756Z,34.60
2023-03-02T21:10:08.466Z,35.53
2023-03-02T21:15:02.350Z,34.40
2023-03-02T21:19:55.374Z,40.00
2023-03-02T21:24:49.425Z,41.17
2023-03-02T21:29:42.350Z,42.07
2023-03-02T21:34:37.206Z,35.30
2023-03-02T21:39:31.113Z,35.27
2023-03-02T21:44:25.758Z,30.50
2023-03-02T21:49:19.802Z,34.87
2023-03-02T21:54:12.591Z,35.40
2023-03-02T21:59:05.522Z,31.50
2023-03-02T22:03:59.617Z,35.37
2023-03-02T22:08:52.702Z,35.53
2023-03-02T22:13:45.378Z,32.13
2023-03-02T22:18:38.045Z,34.80
2023-03-02T22:23:32.415Z,35.90
2023-03-02T22:28:26.578Z,37.83
2023-03-02T22:33:20.648Z,36.77
2023-03-02T22:38:14.480Z,34.13
2023-03-02T22:43:15.063Z,34.73
2023-03-02T22:48:11.906Z,35.20
2023-03-02T22:53:08.487Z,32.70
2023-03-02T22:58:01.899Z,30.30
2023-03-02T23:02:57.492Z,26.40
2023-03-02T23:07:50.108Z,27.97
2023-03-02T23:12:42.910Z,29.07
2023-03-02T23:17:36.937Z,31.77
2023-03-02T23:22:31.149Z,35.10
2023-03-02T23:27:24.770Z,31.10
2023-03-02T23:32:19.397Z,33.47
2023-03-02T23:37:12.283Z,30.83
2023-03-02T23:42:06.476Z,29.53
2023-03-02T23:46:59.098Z,28.93
2023-03-02T23:51:51.764Z,33.00
2023-03-02T23:56:44.359Z,32.00
